sensor_id;sensor_type;location;lat;lon;timestamp;P1;durP1;ratioP1;P2;durP2;ratioP2
4206;SDS011;2117;47.972;7.830;2023-06-04T01:01:49;7.87;;;7.03;;
4206;SDS011;2117;47.972;7.830;2023-06-04T01:04:23;9.03;;;7.10;;
4206;SDS011;2117;47.972;7.830;2023-06-04T01:07:09;10.60;;;7.77;;
4206;SDS011;2117;47.972;7.830;2023-06-04T01:09:38;8.93;;;7.40;;
4206;SDS011;2117;47.972;7.830;2023-06-04T01:12:04;12.40;;;8.30;;
4206;SDS011;2117;47.972;7.830;2023-06-04T01:14:31;12.80;;;8.03;;
4206;SDS011;2117;47.972;7.830;2023-06-04T01:20:20;9.90;;;7.33;;
4206;SDS011;2117;47.972;7.830;2023-06-04T01:25:43;9.63;;;7.93;;
4206;SDS011;2117;47.972;7.830;2023-06-04T01:28:10;9.97;;;7.33;;
4206;SDS011;2117;47.972;7.830;2023-06-04T01:30:38;9.97;;;8.10;;
4206;SDS011;2117;47.972;7.830;2023-06-04T01:33:11;11.10;;;7.90;;
4206;SDS011;2117;47.972;7.830;2023-06-04T01:35:38;11.70;;;7.47;;
4206;SDS011;2117;47.972;7.830;2023-06-04T01:38:04;10.47;;;7.07;;
4206;SDS011;2117;47.972;7.830;2023-06-04T01:40:30;8.53;;;6.73;;
4206;SDS011;2117;47.972;7.830;2023-06-04T01:42:57;11.00;;;7.80;;
4206;SDS011;2117;47.972;7.830;2023-06-04T01:45:23;11.10;;;7.30;;
4206;SDS011;2117;47.972;7.830;2023-06-04T01:47:50;8.50;;;7.50;;
4206;SDS011;2117;47.972;7.830;2023-06-04T01:50:16;9.43;;;8.43;;
4206;SDS011;2117;47.972;7.830;2023-06-04T01:52:43;12.40;;;7.87;;
4206;SDS011;2117;47.972;7.830;2023-06-04T01:55:11;10.80;;;8.70;;
4206;SDS011;2117;47.972;7.830;2023-06-04T01:57:38;8.70;;;7.20;;
4206;SDS011;2117;47.972;7.830;2023-06-04T02:00:05;9.70;;;7.70;;
4206;SDS011;2117;47.972;7.830;2023-06-04T02:02:33;10.67;;;8.00;;
4206;SDS011;2117;47.972;7.830;2023-06-04T02:05:00;12.47;;;8.10;;
4206;SDS011;2117;47.972;7.830;2023-06-04T02:07:26;10.23;;;7.17;;
4206;SDS011;2117;47.972;7.830;2023-06-04T02:09:51;12.10;;;8.30;;
4206;SDS011;2117;47.972;7.830;2023-06-04T02:12:17;10.33;;;7.50;;
4206;SDS011;2117;47.972;7.830;2023-06-04T02:14:43;11.80;;;7.30;;
4206;SDS011;2117;47.972;7.830;2023-06-04T02:17:12;9.60;;;8.27;;
4206;SDS011;2117;47.972;7.830;2023-06-04T02:19:41;9.33;;;7.60;;
4206;SDS011;2117;47.972;7.830;2023-06-04T02:22:14;8.70;;;7.53;;
4206;SDS011;2117;47.972;7.830;2023-06-04T02:24:41;10.90;;;8.07;;
4206;SDS011;2117;47.972;7.830;2023-06-04T02:27:10;9.60;;;7.60;;
4206;SDS011;2117;47.972;7.830;2023-06-04T02:29:37;12.23;;;8.40;;
4206;SDS011;2117;47.972;7.830;2023-06-04T02:32:03;10.83;;;8.47;;
4206;SDS011;2117;47.972;7.830;2023-06-04T02:34:29;10.47;;;7.77;;
4206;SDS011;2117;47.972;7.830;2023-06-04T02:36:55;8.70;;;7.60;;
4206;SDS011;2117;47.972;7.830;2023-06-04T02:39:22;11.07;;;8.03;;
4206;SDS011;2117;47.972;7.830;2023-06-04T02:41:47;10.27;;;7.90;;
4206;SDS011;2117;47.972;7.830;2023-06-04T02:44:13;12.50;;;8.33;;
4206;SDS011;2117;47.972;7.830;2023-06-04T02:46:38;8.87;;;7.20;;
4206;SDS011;2117;47.972;7.830;2023-06-04T02:49:04;10.80;;;8.40;;
4206;SDS011;2117;47.972;7.830;2023-06-04T02:51:30;11.17;;;8.20;;
4206;SDS011;2117;47.972;7.830;2023-06-04T02:53:57;10.27;;;8.83;;
4206;SDS011;2117;47.972;7.830;2023-06-04T02:56:23;7.80;;;6.47;;
4206;SDS011;2117;47.972;7.830;2023-06-04T02:58:52;11.93;;;7.77;;
4206;SDS011;2117;47.972;7.830;2023-06-04T03:01:20;11.37;;;8.33;;
4206;SDS011;2117;47.972;7.830;2023-06-04T03:03:49;10.50;;;7.47;;
4206;SDS011;2117;47.972;7.830;2023-06-04T03:06:15;11.30;;;8.07;;
4206;SDS011;2117;47.972;7.830;2023-06-04T03:08:42;9.33;;;7.67;;
4206;SDS011;2117;47.972;7.830;2023-06-04T03:11:08;11.87;;;7.83;;
4206;SDS011;2117;47.972;7.830;2023-06-04T03:13:34;11.77;;;7.73;;
4206;SDS011;2117;47.972;7.830;2023-06-04T03:16:00;10.60;;;7.50;;
4206;SDS011;2117;47.972;7.830;2023-06-04T03:18:29;14.10;;;8.83;;
4206;SDS011;2117;47.972;7.830;2023-06-04T03:20:55;12.13;;;8.43;;
4206;SDS011;2117;47.972;7.830;2023-06-04T03:23:20;9.80;;;8.07;;
4206;SDS011;2117;47.972;7.830;2023-06-04T03:25:46;12.93;;;7.27;;
4206;SDS011;2117;47.972;7.830;2023-06-04T03:28:12;12.50;;;7.60;;
4206;SDS011;2117;47.972;7.830;2023-06-04T03:30:39;11.70;;;8.10;;
4206;SDS011;2117;47.972;7.830;2023-06-04T03:33:06;16.53;;;7.80;;
4206;SDS011;2117;47.972;7.830;2023-06-04T03:35:32;9.70;;;8.33;;
4206;SDS011;2117;47.972;7.830;2023-06-04T03:37:58;11.67;;;9.10;;
4206;SDS011;2117;47.972;7.830;2023-06-04T03:40:23;9.03;;;7.90;;
4206;SDS011;2117;47.972;7.830;2023-06-04T03:42:49;11.00;;;7.70;;
4206;SDS011;2117;47.972;7.830;2023-06-04T03:45:14;12.70;;;8.87;;
4206;SDS011;2117;47.972;7.830;2023-06-04T03:47:40;10.43;;;8.20;;
4206;SDS011;2117;47.972;7.830;2023-06-04T03:50:05;10.23;;;7.70;;
4206;SDS011;2117;47.972;7.830;2023-06-04T03:52:31;15.40;;;8.73;;
4206;SDS011;2117;47.972;7.830;2023-06-04T03:54:57;11.13;;;8.87;;
4206;SDS011;2117;47.972;7.830;2023-06-04T03:57:23;9.93;;;7.80;;
4206;SDS011;2117;47.972;7.830;2023-06-04T03:59:49;16.27;;;8.60;;
4206;SDS011;2117;47.972;7.830;2023-06-04T04:02:15;18.33;;;8.73;;
4206;SDS011;2117;47.972;7.830;2023-06-04T04:04:42;12.13;;;8.23;;
4206;SDS011;2117;47.972;7.830;2023-06-04T04:07:07;11.50;;;8.23;;
4206;SDS011;2117;47.972;7.830;2023-06-04T04:09:33;9.20;;;7.37;;
4206;SDS011;2117;47.972;7.830;2023-06-04T04:11:59;8.70;;;7.43;;
4206;SDS011;2117;47.972;7.830;2023-06-04T04:14:25;9.50;;;8.50;;
4206;SDS011;2117;47.972;7.830;2023-06-04T04:16:50;12.10;;;8.50;;
4206;SDS011;2117;47.972;7.830;2023-06-04T04:19:16;9.40;;;8.00;;
4206;SDS011;2117;47.972;7.830;2023-06-04T04:21:42;9.30;;;7.43;;
4206;SDS011;2117;47.972;7.830;2023-06-04T04:24:08;9.20;;;6.80;;
4206;SDS011;2117;47.972;7.830;2023-06-04T04:26:34;10.53;;;6.77;;
4206;SDS011;2117;47.972;7.830;2023-06-04T04:29:00;10.63;;;7.33;;
4206;SDS011;2117;47.972;7.830;2023-06-04T04:31:28;9.43;;;7.43;;
4206;SDS011;2117;47.972;7.830;2023-06-04T04:33:55;9.37;;;8.40;;
4206;SDS011;2117;47.972;7.830;2023-06-04T04:36:21;10.67;;;8.27;;
4206;SDS011;2117;47.972;7.830;2023-06-04T04:38:46;10.50;;;8.83;;
4206;SDS011;2117;47.972;7.830;2023-06-04T04:41:19;10.97;;;8.80;;
4206;SDS011;2117;47.972;7.830;2023-06-04T04:43:46;11.37;;;8.77;;
4206;SDS011;2117;47.972;7.830;2023-06-04T04:46:11;18.60;;;8.47;;
4206;SDS011;2117;47.972;7.830;2023-06-04T04:48:37;12.17;;;7.30;;
4206;SDS011;2117;47.972;7.830;2023-06-04T04:51:03;11.53;;;8.20;;
4206;SDS011;2117;47.972;7.830;2023-06-04T04:53:29;10.37;;;8.93;;
4206;SDS011;2117;47.972;7.830;2023-06-04T04:55:55;14.33;;;9.23;;
4206;SDS011;2117;47.972;7.830;2023-06-04T04:58:20;12.63;;;7.70;;
4206;SDS011;2117;47.972;7.830;2023-06-04T05:00:46;22.83;;;8.47;;
4206;SDS011;2117;47.972;7.830;2023-06-04T05:03:12;12.10;;;8.13;;
4206;SDS011;2117;47.972;7.830;2023-06-04T05:05:38;10.77;;;7.40;;
4206;SDS011;2117;47.972;7.830;2023-06-04T05:08:04;10.53;;;8.23;;
4206;SDS011;2117;47.972;7.830;2023-06-04T05:10:30;11.47;;;7.27;;
4206;SDS011;2117;47.972;7.830;2023-06-04T05:12:59;9.03;;;7.37;;
4206;SDS011;2117;47.972;7.830;2023-06-04T05:15:26;7.77;;;7.00;;
4206;SDS011;2117;47.972;7.830;2023-06-04T05:17:52;10.60;;;7.90;;
4206;SDS011;2117;47.972;7.830;2023-06-04T05:20:18;9.67;;;6.73;;
4206;SDS011;2117;47.972;7.830;2023-06-04T05:22:46;10.83;;;6.97;;
4206;SDS011;2117;47.972;7.830;2023-06-04T05:25:12;9.13;;;5.77;;
4206;SDS011;2117;47.972;7.830;2023-06-04T05:27:37;9.57;;;6.97;;
4206;SDS011;2117;47.972;7.830;2023-06-04T05:30:05;10.00;;;7.33;;
4206;SDS011;2117;47.972;7.830;2023-06-04T05:32:31;8.93;;;6.90;;
4206;SDS011;2117;47.972;7.830;2023-06-04T05:34:57;8.93;;;7.27;;
4206;SDS011;2117;47.972;7.830;2023-06-04T05:37:24;9.60;;;6.60;;
4206;SDS011;2117;47.972;7.830;2023-06-04T05:39:51;10.63;;;6.63;;
4206;SDS011;2117;47.972;7.830;2023-06-04T05:42:18;8.43;;;6.20;;
4206;SDS011;2117;47.972;7.830;2023-06-04T05:44:43;10.97;;;6.83;;
4206;SDS011;2117;47.972;7.830;2023-06-04T05:47:09;11.10;;;6.07;;
4206;SDS011;2117;47.972;7.830;2023-06-04T05:49:35;8.73;;;6.20;;
4206;SDS011;2117;47.972;7.830;2023-06-04T05:52:00;8.00;;;5.43;;
4206;SDS011;2117;47.972;7.830;2023-06-04T05:54:26;9.03;;;5.77;;
4206;SDS011;2117;47.972;7.830;2023-06-04T05:56:53;9.07;;;5.83;;
4206;SDS011;2117;47.972;7.830;2023-06-04T05:59:19;9.30;;;5.87;;
4206;SDS011;2117;47.972;7.830;2023-06-04T06:01:45;13.13;;;5.83;;
4206;SDS011;2117;47.972;7.830;2023-06-04T06:04:12;12.03;;;6.50;;
4206;SDS011;2117;47.972;7.830;2023-06-04T06:06:38;9.00;;;5.40;;
4206;SDS011;2117;47.972;7.830;2023-06-04T06:09:04;10.53;;;6.40;;
4206;SDS011;2117;47.972;7.830;2023-06-04T06:11:30;5.57;;;4.70;;
4206;SDS011;2117;47.972;7.830;2023-06-04T06:13:56;7.47;;;5.50;;
4206;SDS011;2117;47.972;7.830;2023-06-04T06:16:21;9.00;;;5.30;;
4206;SDS011;2117;47.972;7.830;2023-06-04T06:18:47;10.63;;;5.13;;
4206;SDS011;2117;47.972;7.830;2023-06-04T06:21:12;7.63;;;5.30;;
4206;SDS011;2117;47.972;7.830;2023-06-04T06:23:38;6.20;;;4.67;;
4206;SDS011;2117;47.972;7.830;2023-06-04T06:26:03;7.20;;;5.60;;
4206;SDS011;2117;47.972;7.830;2023-06-04T06:28:33;11.37;;;5.63;;
4206;SDS011;2117;47.972;7.830;2023-06-04T06:30:58;12.60;;;5.63;;
4206;SDS011;2117;47.972;7.830;2023-06-04T06:33:24;6.50;;;4.80;;
4206;SDS011;2117;47.972;7.830;2023-06-04T06:35:49;8.73;;;5.50;;
4206;SDS011;2117;47.972;7.830;2023-06-04T06:38:15;7.37;;;5.60;;
4206;SDS011;2117;47.972;7.830;2023-06-04T06:40:41;11.17;;;5.80;;
4206;SDS011;2117;47.972;7.830;2023-06-04T06:43:06;11.23;;;6.10;;
4206;SDS011;2117;47.972;7.830;2023-06-04T06:45:32;8.40;;;5.47;;
4206;SDS011;2117;47.972;7.830;2023-06-04T06:47:57;8.10;;;5.83;;
4206;SDS011;2117;47.972;7.830;2023-06-04T06:50:23;8.60;;;6.40;;
4206;SDS011;2117;47.972;7.830;2023-06-04T06:52:49;12.13;;;6.33;;
4206;SDS011;2117;47.972;7.830;2023-06-04T06:55:14;15.30;;;6.87;;
4206;SDS011;2117;47.972;7.830;2023-06-04T06:57:40;9.93;;;6.83;;
4206;SDS011;2117;47.972;7.830;2023-06-04T07:00:06;10.90;;;7.10;;
4206;SDS011;2117;47.972;7.830;2023-06-04T07:02:32;9.70;;;6.57;;
4206;SDS011;2117;47.972;7.830;2023-06-04T07:04:57;8.13;;;6.47;;
4206;SDS011;2117;47.972;7.830;2023-06-04T07:07:23;9.63;;;6.70;;
4206;SDS011;2117;47.972;7.830;2023-06-04T07:09:48;10.43;;;6.50;;
4206;SDS011;2117;47.972;7.830;2023-06-04T07:12:15;13.33;;;7.20;;
4206;SDS011;2117;47.972;7.830;2023-06-04T07:14:40;14.67;;;7.10;;
4206;SDS011;2117;47.972;7.830;2023-06-04T07:17:06;12.70;;;7.10;;
4206;SDS011;2117;47.972;7.830;2023-06-04T07:21:59;7.50;;;5.70;;
4206;SDS011;2117;47.972;7.830;2023-06-04T07:24:25;7.30;;;5.53;;
4206;SDS011;2117;47.972;7.830;2023-06-04T07:26:50;10.50;;;6.10;;
4206;SDS011;2117;47.972;7.830;2023-06-04T07:29:16;9.00;;;5.83;;
4206;SDS011;2117;47.972;7.830;2023-06-04T07:31:41;10.63;;;5.70;;
4206;SDS011;2117;47.972;7.830;2023-06-04T07:34:07;10.80;;;5.50;;
4206;SDS011;2117;47.972;7.830;2023-06-04T07:36:33;8.27;;;6.40;;
4206;SDS011;2117;47.972;7.830;2023-06-04T07:38:59;10.43;;;6.37;;
4206;SDS011;2117;47.972;7.830;2023-06-04T07:41:25;10.63;;;6.13;;
4206;SDS011;2117;47.972;7.830;2023-06-04T07:43:51;7.70;;;5.60;;
4206;SDS011;2117;47.972;7.830;2023-06-04T07:46:17;6.93;;;5.43;;
4206;SDS011;2117;47.972;7.830;2023-06-04T07:48:44;7.80;;;5.53;;
4206;SDS011;2117;47.972;7.830;2023-06-04T07:51:10;8.03;;;5.73;;
4206;SDS011;2117;47.972;7.830;2023-06-04T07:53:38;10.60;;;5.87;;
4206;SDS011;2117;47.972;7.830;2023-06-04T07:56:04;6.83;;;5.10;;
4206;SDS011;2117;47.972;7.830;2023-06-04T07:58:30;6.20;;;4.93;;
4206;SDS011;2117;47.972;7.830;2023-06-04T08:00:55;6.67;;;5.43;;
4206;SDS011;2117;47.972;7.830;2023-06-04T08:03:21;10.80;;;5.97;;
4206;SDS011;2117;47.972;7.830;2023-06-04T08:05:48;8.87;;;6.70;;
4206;SDS011;2117;47.972;7.830;2023-06-04T08:08:14;10.73;;;5.73;;
4206;SDS011;2117;47.972;7.830;2023-06-04T08:10:39;9.70;;;6.10;;
4206;SDS011;2117;47.972;7.830;2023-06-04T08:13:06;11.67;;;6.80;;
4206;SDS011;2117;47.972;7.830;2023-06-04T08:15:31;10.30;;;6.33;;
4206;SDS011;2117;47.972;7.830;2023-06-04T08:17:57;10.23;;;6.77;;
4206;SDS011;2117;47.972;7.830;2023-06-04T08:20:23;15.90;;;6.70;;
4206;SDS011;2117;47.972;7.830;2023-06-04T08:22:48;9.03;;;6.27;;
4206;SDS011;2117;47.972;7.830;2023-06-04T08:25:14;9.40;;;5.60;;
4206;SDS011;2117;47.972;7.830;2023-06-04T08:27:40;6.50;;;5.23;;
4206;SDS011;2117;47.972;7.830;2023-06-04T08:30:07;6.63;;;4.70;;
4206;SDS011;2117;47.972;7.830;2023-06-04T08:32:33;9.03;;;5.23;;
4206;SDS011;2117;47.972;7.830;2023-06-04T08:34:59;5.43;;;4.80;;
4206;SDS011;2117;47.972;7.830;2023-06-04T08:37:24;9.20;;;4.73;;
4206;SDS011;2117;47.972;7.830;2023-06-04T08:39:50;10.20;;;4.03;;
4206;SDS011;2117;47.972;7.830;2023-06-04T08:42:30;7.37;;;4.07;;
4206;SDS011;2117;47.972;7.830;2023-06-04T08:45:01;8.10;;;4.47;;
4206;SDS011;2117;47.972;7.830;2023-06-04T08:47:27;7.83;;;4.80;;
4206;SDS011;2117;47.972;7.830;2023-06-04T08:49:55;8.20;;;5.00;;
4206;SDS011;2117;47.972;7.830;2023-06-04T08:52:24;6.97;;;4.77;;
4206;SDS011;2117;47.972;7.830;2023-06-04T08:54:50;9.00;;;4.77;;
4206;SDS011;2117;47.972;7.830;2023-06-04T08:57:18;9.20;;;5.20;;
4206;SDS011;2117;47.972;7.830;2023-06-04T08:59:47;11.13;;;4.87;;
4206;SDS011;2117;47.972;7.830;2023-06-04T09:02:16;6.43;;;4.40;;
4206;SDS011;2117;47.972;7.830;2023-06-04T09:04:43;12.47;;;5.33;;
4206;SDS011;2117;47.972;7.830;2023-06-04T09:07:10;6.63;;;4.40;;
4206;SDS011;2117;47.972;7.830;2023-06-04T09:09:39;10.50;;;4.80;;
4206;SDS011;2117;47.972;7.830;2023-06-04T09:12:08;5.77;;;4.23;;
4206;SDS011;2117;47.972;7.830;2023-06-04T09:14:35;7.57;;;4.10;;
4206;SDS011;2117;47.972;7.830;2023-06-04T09:17:01;8.83;;;4.17;;
4206;SDS011;2117;47.972;7.830;2023-06-04T09:19:27;5.13;;;3.80;;
4206;SDS011;2117;47.972;7.830;2023-06-04T09:24:20;11.10;;;4.70;;
4206;SDS011;2117;47.972;7.830;2023-06-04T09:26:46;6.00;;;4.00;;
4206;SDS011;2117;47.972;7.830;2023-06-04T09:29:12;8.37;;;4.83;;
4206;SDS011;2117;47.972;7.830;2023-06-04T09:31:39;6.00;;;4.00;;
4206;SDS011;2117;47.972;7.830;2023-06-04T09:34:05;6.33;;;4.43;;
4206;SDS011;2117;47.972;7.830;2023-06-04T09:36:34;10.27;;;4.80;;
4206;SDS011;2117;47.972;7.830;2023-06-04T09:39:03;8.73;;;5.83;;
4206;SDS011;2117;47.972;7.830;2023-06-04T09:41:40;7.00;;;4.83;;
4206;SDS011;2117;47.972;7.830;2023-06-04T09:44:05;7.73;;;5.30;;
4206;SDS011;2117;47.972;7.830;2023-06-04T09:46:35;7.20;;;4.97;;
4206;SDS011;2117;47.972;7.830;2023-06-04T09:49:02;7.10;;;5.40;;
4206;SDS011;2117;47.972;7.830;2023-06-04T09:51:29;11.80;;;6.07;;
4206;SDS011;2117;47.972;7.830;2023-06-04T09:53:59;7.83;;;6.93;;
4206;SDS011;2117;47.972;7.830;2023-06-04T09:56:28;9.33;;;6.27;;
4206;SDS011;2117;47.972;7.830;2023-06-04T09:58:55;9.90;;;5.80;;
4206;SDS011;2117;47.972;7.830;2023-06-04T10:01:28;8.40;;;6.40;;
4206;SDS011;2117;47.972;7.830;2023-06-04T10:03:55;13.50;;;6.87;;
4206;SDS011;2117;47.972;7.830;2023-06-04T10:06:27;9.60;;;6.57;;
4206;SDS011;2117;47.972;7.830;2023-06-04T10:08:55;7.80;;;6.40;;
4206;SDS011;2117;47.972;7.830;2023-06-04T10:11:25;8.53;;;5.83;;
4206;SDS011;2117;47.972;7.830;2023-06-04T10:13:57;10.77;;;6.80;;
4206;SDS011;2117;47.972;7.830;2023-06-04T10:16:27;8.70;;;5.80;;
4206;SDS011;2117;47.972;7.830;2023-06-04T10:18:55;8.20;;;7.23;;
4206;SDS011;2117;47.972;7.830;2023-06-04T10:21:21;11.80;;;7.00;;
4206;SDS011;2117;47.972;7.830;2023-06-04T10:23:48;7.43;;;6.63;;
4206;SDS011;2117;47.972;7.830;2023-06-04T10:26:15;6.67;;;5.87;;
4206;SDS011;2117;47.972;7.830;2023-06-04T10:28:41;8.23;;;6.70;;
4206;SDS011;2117;47.972;7.830;2023-06-04T10:31:08;10.20;;;6.30;;
4206;SDS011;2117;47.972;7.830;2023-06-04T10:33:34;7.90;;;6.93;;
4206;SDS011;2117;47.972;7.830;2023-06-04T10:36:10;7.90;;;6.50;;
4206;SDS011;2117;47.972;7.830;2023-06-04T10:38:48;7.87;;;6.30;;
4206;SDS011;2117;47.972;7.830;2023-06-04T10:41:15;10.40;;;7.27;;
4206;SDS011;2117;47.972;7.830;2023-06-04T10:43:43;8.57;;;6.60;;
4206;SDS011;2117;47.972;7.830;2023-06-04T10:46:13;8.33;;;7.20;;
4206;SDS011;2117;47.972;7.830;2023-06-04T10:48:46;8.13;;;6.23;;
4206;SDS011;2117;47.972;7.830;2023-06-04T10:51:16;8.40;;;5.43;;
4206;SDS011;2117;47.972;7.830;2023-06-04T10:53:55;7.13;;;5.80;;
4206;SDS011;2117;47.972;7.830;2023-06-04T10:56:31;9.77;;;7.00;;
4206;SDS011;2117;47.972;7.830;2023-06-04T10:58:59;14.00;;;7.07;;
4206;SDS011;2117;47.972;7.830;2023-06-04T11:01:27;9.23;;;7.30;;
4206;SDS011;2117;47.972;7.830;2023-06-04T11:03:56;10.47;;;6.70;;
4206;SDS011;2117;47.972;7.830;2023-06-04T11:06:22;10.03;;;7.47;;
4206;SDS011;2117;47.972;7.830;2023-06-04T11:09:01;9.07;;;6.70;;
4206;SDS011;2117;47.972;7.830;2023-06-04T11:11:33;11.30;;;6.80;;
4206;SDS011;2117;47.972;7.830;2023-06-04T11:14:10;9.03;;;7.03;;
4206;SDS011;2117;47.972;7.830;2023-06-04T11:16:40;9.83;;;7.27;;
4206;SDS011;2117;47.972;7.830;2023-06-04T11:19:06;10.13;;;8.20;;
4206;SDS011;2117;47.972;7.830;2023-06-04T11:21:33;10.13;;;6.70;;
4206;SDS011;2117;47.972;7.830;2023-06-04T11:24:01;7.37;;;6.60;;
4206;SDS011;2117;47.972;7.830;2023-06-04T11:26:31;13.10;;;7.80;;
4206;SDS011;2117;47.972;7.830;2023-06-04T11:29:01;6.80;;;6.10;;
4206;SDS011;2117;47.972;7.830;2023-06-04T11:31:42;7.30;;;6.30;;
4206;SDS011;2117;47.972;7.830;2023-06-04T11:34:09;7.50;;;6.30;;
4206;SDS011;2117;47.972;7.830;2023-06-04T11:36:38;8.87;;;6.30;;
4206;SDS011;2117;47.972;7.830;2023-06-04T11:39:04;9.73;;;6.60;;
4206;SDS011;2117;47.972;7.830;2023-06-04T11:41:34;6.77;;;6.07;;
4206;SDS011;2117;47.972;7.830;2023-06-04T11:44:02;14.73;;;7.03;;
4206;SDS011;2117;47.972;7.830;2023-06-04T11:46:30;9.60;;;7.00;;
4206;SDS011;2117;47.972;7.830;2023-06-04T11:48:57;13.53;;;7.57;;
4206;SDS011;2117;47.972;7.830;2023-06-04T11:51:23;7.80;;;7.00;;
4206;SDS011;2117;47.972;7.830;2023-06-04T11:53:49;11.87;;;8.00;;
4206;SDS011;2117;47.972;7.830;2023-06-04T11:56:15;10.67;;;7.10;;
4206;SDS011;2117;47.972;7.830;2023-06-04T11:58:41;13.73;;;7.03;;
4206;SDS011;2117;47.972;7.830;2023-06-04T12:01:08;7.67;;;6.30;;
4206;SDS011;2117;47.972;7.830;2023-06-04T12:03:34;7.90;;;7.03;;
4206;SDS011;2117;47.972;7.830;2023-06-04T12:06:20;8.53;;;6.40;;
4206;SDS011;2117;47.972;7.830;2023-06-04T12:08:47;7.07;;;6.27;;
4206;SDS011;2117;47.972;7.830;2023-06-04T12:11:26;7.83;;;7.03;;
4206;SDS011;2117;47.972;7.830;2023-06-04T12:13:59;9.70;;;7.00;;
4206;SDS011;2117;47.972;7.830;2023-06-04T12:16:28;7.23;;;6.53;;
4206;SDS011;2117;47.972;7.830;2023-06-04T12:19:10;8.10;;;5.73;;
4206;SDS011;2117;47.972;7.830;2023-06-04T12:21:37;7.73;;;6.90;;
4206;SDS011;2117;47.972;7.830;2023-06-04T12:26:33;8.10;;;6.53;;
4206;SDS011;2117;47.972;7.830;2023-06-04T12:29:02;8.30;;;6.40;;
4206;SDS011;2117;47.972;7.830;2023-06-04T12:31:35;8.80;;;7.50;;
4206;SDS011;2117;47.972;7.830;2023-06-04T12:34:01;9.23;;;7.00;;
4206;SDS011;2117;47.972;7.830;2023-06-04T12:36:26;10.30;;;7.63;;
4206;SDS011;2117;47.972;7.830;2023-06-04T12:38:53;10.53;;;7.27;;
4206;SDS011;2117;47.972;7.830;2023-06-04T12:41:22;9.20;;;7.27;;
4206;SDS011;2117;47.972;7.830;2023-06-04T12:43:48;10.05;;;7.78;;
4206;SDS011;2117;47.972;7.830;2023-06-04T12:46:14;8.73;;;7.80;;
4206;SDS011;2117;47.972;7.830;2023-06-04T12:48:39;9.73;;;7.47;;
4206;SDS011;2117;47.972;7.830;2023-06-04T12:51:05;7.38;;;6.35;;
4206;SDS011;2117;47.972;7.830;2023-06-04T12:53:33;9.07;;;6.68;;
4206;SDS011;2117;47.972;7.830;2023-06-04T12:55:58;9.02;;;6.18;;
4206;SDS011;2117;47.972;7.830;2023-06-04T12:58:24;11.10;;;7.90;;
4206;SDS011;2117;47.972;7.830;2023-06-04T13:00:50;8.10;;;7.30;;
4206;SDS011;2117;47.972;7.830;2023-06-04T13:03:15;14.85;;;7.03;;
4206;SDS011;2117;47.972;7.830;2023-06-04T13:05:42;15.13;;;8.23;;
4206;SDS011;2117;47.972;7.830;2023-06-04T13:08:07;8.18;;;7.18;;
4206;SDS011;2117;47.972;7.830;2023-06-04T13:10:33;9.45;;;6.97;;
4206;SDS011;2117;47.972;7.830;2023-06-04T13:12:58;10.40;;;6.47;;
4206;SDS011;2117;47.972;7.830;2023-06-04T13:15:24;9.55;;;7.90;;
4206;SDS011;2117;47.972;7.830;2023-06-04T13:17:50;8.30;;;7.50;;
4206;SDS011;2117;47.972;7.830;2023-06-04T13:20:15;8.57;;;6.82;;
4206;SDS011;2117;47.972;7.830;2023-06-04T13:22:41;9.55;;;7.30;;
4206;SDS011;2117;47.972;7.830;2023-06-04T13:25:08;9.00;;;6.85;;
4206;SDS011;2117;47.972;7.830;2023-06-04T13:27:34;7.03;;;6.32;;
4206;SDS011;2117;47.972;7.830;2023-06-04T13:29:59;9.18;;;7.45;;
4206;SDS011;2117;47.972;7.830;2023-06-04T13:32:25;7.75;;;6.63;;
4206;SDS011;2117;47.972;7.830;2023-06-04T13:34:50;9.65;;;7.15;;
4206;SDS011;2117;47.972;7.830;2023-06-04T13:37:16;7.57;;;6.00;;
4206;SDS011;2117;47.972;7.830;2023-06-04T13:39:42;9.95;;;7.00;;
4206;SDS011;2117;47.972;7.830;2023-06-04T13:42:07;7.93;;;6.47;;
4206;SDS011;2117;47.972;7.830;2023-06-04T13:44:33;6.88;;;5.60;;
4206;SDS011;2117;47.972;7.830;2023-06-04T13:46:58;6.68;;;4.78;;
4206;SDS011;2117;47.972;7.830;2023-06-04T13:49:24;9.25;;;6.30;;
4206;SDS011;2117;47.972;7.830;2023-06-04T13:51:50;9.57;;;6.78;;
4206;SDS011;2117;47.972;7.830;2023-06-04T13:54:16;7.38;;;6.68;;
4206;SDS011;2117;47.972;7.830;2023-06-04T13:56:41;6.53;;;5.93;;
4206;SDS011;2117;47.972;7.830;2023-06-04T13:59:08;7.40;;;6.40;;
4206;SDS011;2117;47.972;7.830;2023-06-04T14:01:34;12.13;;;7.38;;
4206;SDS011;2117;47.972;7.830;2023-06-04T14:04:00;11.15;;;6.97;;
4206;SDS011;2117;47.972;7.830;2023-06-04T14:06:26;9.63;;;7.43;;
4206;SDS011;2117;47.972;7.830;2023-06-04T14:08:51;9.05;;;6.97;;
4206;SDS011;2117;47.972;7.830;2023-06-04T14:11:17;8.07;;;6.10;;
4206;SDS011;2117;47.972;7.830;2023-06-04T14:13:43;9.35;;;6.50;;
4206;SDS011;2117;47.972;7.830;2023-06-04T14:16:10;7.85;;;7.05;;
4206;SDS011;2117;47.972;7.830;2023-06-04T14:18:35;9.88;;;6.70;;
4206;SDS011;2117;47.972;7.830;2023-06-04T14:21:01;9.27;;;6.95;;
4206;SDS011;2117;47.972;7.830;2023-06-04T14:23:26;11.55;;;7.03;;
4206;SDS011;2117;47.972;7.830;2023-06-04T14:25:52;7.43;;;6.07;;
4206;SDS011;2117;47.972;7.830;2023-06-04T14:28:17;8.23;;;7.38;;
4206;SDS011;2117;47.972;7.830;2023-06-04T14:30:45;8.10;;;7.35;;
4206;SDS011;2117;47.972;7.830;2023-06-04T14:33:11;8.07;;;7.32;;
4206;SDS011;2117;47.972;7.830;2023-06-04T14:35:36;8.95;;;6.65;;
4206;SDS011;2117;47.972;7.830;2023-06-04T14:38:03;8.30;;;7.32;;
4206;SDS011;2117;47.972;7.830;2023-06-04T14:40:29;7.65;;;6.85;;
4206;SDS011;2117;47.972;7.830;2023-06-04T14:42:55;9.15;;;7.93;;
4206;SDS011;2117;47.972;7.830;2023-06-04T14:45:22;9.52;;;7.05;;
4206;SDS011;2117;47.972;7.830;2023-06-04T14:47:48;22.38;;;8.52;;
4206;SDS011;2117;47.972;7.830;2023-06-04T14:50:16;12.43;;;7.22;;
4206;SDS011;2117;47.972;7.830;2023-06-04T14:52:43;8.27;;;7.47;;
4206;SDS011;2117;47.972;7.830;2023-06-04T14:55:09;8.27;;;7.47;;
4206;SDS011;2117;47.972;7.830;2023-06-04T14:57:34;6.25;;;5.65;;
4206;SDS011;2117;47.972;7.830;2023-06-04T15:00:00;6.88;;;5.40;;
4206;SDS011;2117;47.972;7.830;2023-06-04T15:02:27;8.23;;;5.53;;
4206;SDS011;2117;47.972;7.830;2023-06-04T15:04:54;8.02;;;5.70;;
4206;SDS011;2117;47.972;7.830;2023-06-04T15:07:20;5.57;;;5.07;;
4206;SDS011;2117;47.972;7.830;2023-06-04T15:09:46;6.97;;;5.35;;
4206;SDS011;2117;47.972;7.830;2023-06-04T15:12:13;7.75;;;6.53;;
4206;SDS011;2117;47.972;7.830;2023-06-04T15:14:40;8.00;;;5.38;;
4206;SDS011;2117;47.972;7.830;2023-06-04T15:17:05;14.10;;;6.90;;
4206;SDS011;2117;47.972;7.830;2023-06-04T15:19:32;8.38;;;6.40;;
4206;SDS011;2117;47.972;7.830;2023-06-04T15:21:57;7.28;;;6.35;;
4206;SDS011;2117;47.972;7.830;2023-06-04T15:24:23;7.45;;;6.28;;
4206;SDS011;2117;47.972;7.830;2023-06-04T15:26:49;7.50;;;5.63;;
4206;SDS011;2117;47.972;7.830;2023-06-04T15:29:14;5.97;;;5.43;;
4206;SDS011;2117;47.972;7.830;2023-06-04T15:31:40;6.75;;;6.05;;
4206;SDS011;2117;47.972;7.830;2023-06-04T15:34:06;5.60;;;5.07;;
4206;SDS011;2117;47.972;7.830;2023-06-04T15:36:32;10.85;;;6.35;;
4206;SDS011;2117;47.972;7.830;2023-06-04T15:38:59;7.75;;;6.18;;
4206;SDS011;2117;47.972;7.830;2023-06-04T15:41:25;6.70;;;5.78;;
4206;SDS011;2117;47.972;7.830;2023-06-04T15:43:51;6.18;;;5.03;;
4206;SDS011;2117;47.972;7.830;2023-06-04T15:46:18;7.35;;;5.90;;
4206;SDS011;2117;47.972;7.830;2023-06-04T15:48:43;8.18;;;6.40;;
4206;SDS011;2117;47.972;7.830;2023-06-04T15:51:09;6.68;;;5.90;;
4206;SDS011;2117;47.972;7.830;2023-06-04T15:53:35;7.88;;;5.03;;
4206;SDS011;2117;47.972;7.830;2023-06-04T15:56:01;9.95;;;6.03;;
4206;SDS011;2117;47.972;7.830;2023-06-04T15:58:26;7.28;;;5.70;;
4206;SDS011;2117;47.972;7.830;2023-06-04T16:00:52;9.82;;;6.18;;
4206;SDS011;2117;47.972;7.830;2023-06-04T16:03:17;7.28;;;6.47;;
4206;SDS011;2117;47.972;7.830;2023-06-04T16:05:43;6.80;;;6.10;;
4206;SDS011;2117;47.972;7.830;2023-06-04T16:08:08;9.05;;;6.13;;
4206;SDS011;2117;47.972;7.830;2023-06-04T16:10:34;6.25;;;5.63;;
4206;SDS011;2117;47.972;7.830;2023-06-04T16:13:00;6.55;;;5.55;;
4206;SDS011;2117;47.972;7.830;2023-06-04T16:15:25;5.43;;;4.93;;
4206;SDS011;2117;47.972;7.830;2023-06-04T16:17:51;7.20;;;5.88;;
4206;SDS011;2117;47.972;7.830;2023-06-04T16:20:16;8.20;;;4.85;;
4206;SDS011;2117;47.972;7.830;2023-06-04T16:22:43;5.95;;;5.35;;